createdAt,value
2022-12-26T00:01:30.616Z,86.02
2022-12-26T00:04:00.011Z,84.66
2022-12-26T00:06:30.835Z,84.34
2022-12-26T00:08:58.967Z,84.09
2022-12-26T00:11:27.898Z,85.27
2022-12-26T00:13:57.613Z,85.62
2022-12-26T00:16:27.506Z,84.67
2022-12-26T00:18:55.794Z,84.43
2022-12-26T00:21:27.166Z,85.83
2022-12-26T00:23:55.615Z,85.23
2022-12-26T00:26:25.954Z,86.23
2022-12-26T00:28:54.954Z,85.97
2022-12-26T00:31:25.307Z,85.49
2022-12-26T00:33:53.377Z,85.53
2022-12-26T00:36:26.539Z,86.38
2022-12-26T00:38:54.293Z,85.80
2022-12-26T00:41:23.462Z,85.54
2022-12-26T00:43:52.118Z,85.14
2022-12-26T00:46:20.685Z,85.15
2022-12-26T00:48:48.747Z,85.01
2022-12-26T00:51:17.483Z,84.50
2022-12-26T00:53:47.046Z,84.60
2022-12-26T00:56:16.027Z,84.65
2022-12-26T00:58:44.073Z,83.83
2022-12-26T01:01:15.430Z,85.18
2022-12-26T01:03:44.383Z,83.83
2022-12-26T01:06:12.301Z,84.98
2022-12-26T01:08:40.623Z,83.74
2022-12-26T01:11:11.528Z,83.45
2022-12-26T01:13:39.649Z,84.14
2022-12-26T01:16:09.294Z,85.14
2022-12-26T01:18:37.788Z,85.37
2022-12-26T01:21:08.338Z,86.44
2022-12-26T01:23:36.426Z,86.86
2022-12-26T01:26:16.694Z,87.46
2022-12-26T01:28:49.249Z,87.73
2022-12-26T01:31:19.594Z,88.75
2022-12-26T01:33:47.824Z,89.43
2022-12-26T01:36:17.024Z,88.55
2022-12-26T01:38:45.132Z,89.12
2022-12-26T01:41:20.100Z,88.15
2022-12-26T01:43:53.552Z,87.61
2022-12-26T01:46:24.189Z,87.74
2022-12-26T01:48:53.104Z,87.44
2022-12-26T01:51:24.867Z,87.63
2022-12-26T01:54:40.424Z,87.71
2022-12-26T01:56:48.103Z,88.90
2022-12-26T01:59:20.277Z,88.97
2022-12-26T02:01:52.148Z,87.25
2022-12-26T02:04:46.656Z,87.86
2022-12-26T02:07:15.281Z,87.16
2022-12-26T02:09:43.692Z,88.89
2022-12-26T02:12:36.319Z,88.16
2022-12-26T02:15:11.490Z,87.52
2022-12-26T02:17:40.843Z,87.48
2022-12-26T02:20:18.603Z,87.48
2022-12-26T02:23:19.505Z,88.06
2022-12-26T02:26:29.269Z,87.78
2022-12-26T02:29:40.140Z,88.22
2022-12-26T02:32:15.891Z,87.96
2022-12-26T02:34:54.559Z,87.51
2022-12-26T02:37:34.690Z,86.79
2022-12-26T02:40:17.911Z,86.29
2022-12-26T02:42:58.867Z,85.58
2022-12-26T02:45:52.233Z,86.65
2022-12-26T02:48:32.141Z,86.16
2022-12-26T02:51:29.284Z,85.29
2022-12-26T02:54:25.387Z,86.94
2022-12-26T02:57:15.924Z,87.59
2022-12-26T03:00:12.014Z,85.60
2022-12-26T03:03:02.429Z,85.55
2022-12-26T03:05:54.012Z,86.19
2022-12-26T03:08:47.135Z,86.37
2022-12-26T03:11:32.526Z,85.68
2022-12-26T03:14:09.577Z,86.47
2022-12-26T03:16:54.966Z,86.35
2022-12-26T03:19:26.962Z,86.58
2022-12-26T03:21:58.327Z,85.58
2022-12-26T03:24:46.860Z,85.37
2022-12-26T03:27:14.025Z,84.26
2022-12-26T03:29:59.227Z,84.71
2022-12-26T03:32:27.296Z,84.85
2022-12-26T03:34:55.116Z,85.03
2022-12-26T03:37:48.604Z,85.41
2022-12-26T03:40:43.531Z,84.79
2022-12-26T03:43:39.253Z,84.77
2022-12-26T03:46:36.099Z,85.31
2022-12-26T03:49:27.508Z,85.37
2022-12-26T03:52:21.031Z,84.98
2022-12-26T03:55:13.060Z,84.35
2022-12-26T03:58:08.495Z,84.23
2022-12-26T04:00:57.386Z,84.68
2022-12-26T04:03:44.082Z,84.86
2022-12-26T04:06:37.107Z,85.13
2022-12-26T04:09:42.678Z,84.06
2022-12-26T04:12:36.267Z,84.47
2022-12-26T04:15:29.701Z,84.57
2022-12-26T04:18:27.638Z,84.56
2022-12-26T04:21:29.603Z,85.82
2022-12-26T04:24:18.745Z,85.82
2022-12-26T04:27:10.099Z,88.25
2022-12-26T04:29:57.323Z,88.64
2022-12-26T04:32:53.579Z,87.14
2022-12-26T04:35:46.719Z,87.40
2022-12-26T04:38:37.633Z,87.04
2022-12-26T04:41:25.545Z,87.46
2022-12-26T04:44:08.227Z,88.94
2022-12-26T04:46:41.356Z,88.86
2022-12-26T04:49:30.155Z,88.47
2022-12-26T04:52:01.744Z,86.98
2022-12-26T04:54:30.451Z,86.75
2022-12-26T04:56:58.742Z,86.14
2022-12-26T04:59:27.815Z,86.81
2022-12-26T05:02:15.045Z,87.17
2022-12-26T05:05:01.254Z,86.24
2022-12-26T05:07:49.725Z,86.05
2022-12-26T05:10:21.135Z,86.15
2022-12-26T05:12:49.328Z,85.94
2022-12-26T05:15:18.234Z,85.58
2022-12-26T05:18:06.293Z,86.29
2022-12-26T05:20:48.371Z,85.72
2022-12-26T05:23:38.945Z,86.22
2022-12-26T05:26:25.432Z,86.29
2022-12-26T05:28:59.610Z,86.02
2022-12-26T05:31:34.708Z,85.66
2022-12-26T05:34:08.133Z,86.17
2022-12-26T05:36:39.882Z,85.70
2022-12-26T05:39:10.216Z,85.47
2022-12-26T05:41:40.131Z,85.06
2022-12-26T05:44:09.704Z,84.58
2022-12-26T05:46:38.662Z,85.24
2022-12-26T05:49:08.640Z,84.81
2022-12-26T05:51:37.802Z,84.90
2022-12-26T05:54:06.375Z,84.42
2022-12-26T05:56:35.252Z,83.50
2022-12-26T05:59:03.725Z,83.66
2022-12-26T06:01:32.551Z,84.75
2022-12-26T06:04:01.307Z,84.74
2022-12-26T06:06:31.468Z,83.71
2022-12-26T06:08:59.706Z,84.03
2022-12-26T06:11:29.013Z,85.83
2022-12-26T06:13:57.458Z,86.14
2022-12-26T06:16:26.578Z,85.59
2022-12-26T06:18:56.003Z,85.93
2022-12-26T06:21:25.184Z,85.17
2022-12-26T06:23:54.869Z,85.24
2022-12-26T06:26:23.426Z,85.63
2022-12-26T06:28:51.631Z,84.69
2022-12-26T06:31:22.429Z,85.42
2022-12-26T06:33:51.476Z,85.73
2022-12-26T06:36:22.737Z,85.76
2022-12-26T06:38:51.707Z,85.96
2022-12-26T06:41:23.904Z,85.35
2022-12-26T06:43:52.262Z,84.46
2022-12-26T06:46:22.705Z,84.52
2022-12-26T06:48:51.299Z,83.76
2022-12-26T06:51:22.839Z,83.75
2022-12-26T06:53:52.006Z,83.25
2022-12-26T06:56:23.900Z,82.51
2022-12-26T06:58:55.015Z,82.95
2022-12-26T07:01:24.361Z,82.37
2022-12-26T07:03:54.050Z,80.86
2022-12-26T07:06:25.652Z,81.42
2022-12-26T07:08:55.145Z,81.74
2022-12-26T07:11:27.661Z,81.92
2022-12-26T07:13:57.146Z,80.85
2022-12-26T07:16:25.702Z,81.10
2022-12-26T07:18:55.206Z,80.54
2022-12-26T07:21:24.462Z,81.88
2022-12-26T07:23:52.734Z,80.33
2022-12-26T07:26:21.742Z,80.31
2022-12-26T07:28:54.299Z,80.88
2022-12-26T07:31:23.594Z,81.03
2022-12-26T07:33:53.095Z,81.39
2022-12-26T07:36:22.022Z,81.00
2022-12-26T07:38:50.273Z,81.32
2022-12-26T07:41:36.641Z,80.99
2022-12-26T07:44:07.155Z,81.18
2022-12-26T07:46:35.623Z,83.44
2022-12-26T07:49:04.389Z,82.38
2022-12-26T07:51:32.659Z,82.25
2022-12-26T07:54:03.186Z,80.88
2022-12-26T07:56:36.099Z,79.89
2022-12-26T07:59:05.660Z,79.96
2022-12-26T08:01:34.206Z,80.25
2022-12-26T08:04:02.544Z,79.63
2022-12-26T08:06:43.617Z,78.83
2022-12-26T08:09:16.057Z,80.01
2022-12-26T08:11:46.003Z,79.61
2022-12-26T08:14:16.862Z,79.69
2022-12-26T08:16:51.351Z,78.97
2022-12-26T08:19:21.143Z,78.81
2022-12-26T08:21:49.480Z,78.59
2022-12-26T08:24:18.048Z,78.84
2022-12-26T08:26:46.811Z,78.05
2022-12-26T08:29:16.647Z,77.77
2022-12-26T08:31:45.069Z,75.45
2022-12-26T08:34:13.497Z,77.26
2022-12-26T08:36:42.067Z,75.54
2022-12-26T08:39:10.299Z,75.77
2022-12-26T08:41:39.639Z,75.85
2022-12-26T08:46:57.793Z,77.19
2022-12-26T08:49:25.960Z,76.28
2022-12-26T08:51:54.452Z,79.57
2022-12-26T08:54:23.327Z,80.10
2022-12-26T08:56:51.894Z,81.88
2022-12-26T08:59:20.336Z,81.80
2022-12-26T09:01:49.259Z,84.66
2022-12-26T09:04:18.915Z,85.07
2022-12-26T09:06:48.009Z,85.53
2022-12-26T09:09:19.229Z,87.45
2022-12-26T09:11:48.571Z,87.76
2022-12-26T09:14:17.134Z,87.85
2022-12-26T09:16:50.977Z,88.03
2022-12-26T09:19:22.264Z,88.31
2022-12-26T09:22:13.173Z,88.26
2022-12-26T09:24:41.648Z,87.12
2022-12-26T09:27:10.487Z,87.95
2022-12-26T09:29:39.404Z,87.76
2022-12-26T09:32:08.477Z,87.55
2022-12-26T09:34:38.236Z,87.93
2022-12-26T09:37:06.551Z,87.55
2022-12-26T09:39:35.144Z,88.39
2022-12-26T09:42:15.062Z,88.21
2022-12-26T09:44:52.959Z,89.33
2022-12-26T09:47:33.671Z,89.52
2022-12-26T09:50:11.886Z,90.90
2022-12-26T09:52:44.868Z,90.24
2022-12-26T09:55:39.390Z,90.36
2022-12-26T09:58:17.213Z,91.05
2022-12-26T10:00:52.355Z,90.21
2022-12-26T10:03:21.327Z,91.22
2022-12-26T10:06:05.032Z,90.18
2022-12-26T10:08:46.208Z,90.15
2022-12-26T10:11:25.292Z,90.21
2022-12-26T10:14:00.997Z,90.09
2022-12-26T10:16:43.594Z,89.86
2022-12-26T10:19:32.644Z,90.85
2022-12-26T10:22:20.192Z,89.50
2022-12-26T10:24:51.981Z,90.14
2022-12-26T10:27:23.064Z,90.75
2022-12-26T10:29:56.872Z,91.06
2022-12-26T10:32:31.445Z,90.96
2022-12-26T10:35:01.026Z,91.09
2022-12-26T10:37:37.217Z,91.23
2022-12-26T10:40:19.952Z,92.32
2022-12-26T10:42:55.409Z,91.75
2022-12-26T10:45:35.471Z,91.92
2022-12-26T10:48:04.118Z,93.33
2022-12-26T10:50:35.015Z,92.94
2022-12-26T10:53:08.737Z,93.36
2022-12-26T10:55:37.854Z,93.29
2022-12-26T10:58:14.551Z,92.81
2022-12-26T11:00:42.953Z,92.80
2022-12-26T11:03:13.955Z,91.75
2022-12-26T11:08:43.957Z,92.39
2022-12-26T11:11:15.873Z,91.79
2022-12-26T11:13:50.773Z,91.79
2022-12-26T11:16:27.682Z,91.97
2022-12-26T11:18:57.225Z,92.08
2022-12-26T11:21:28.004Z,92.15
2022-12-26T11:24:19.628Z,92.77
2022-12-26T11:26:49.010Z,92.61
2022-12-26T11:29:19.465Z,91.07
2022-12-26T11:31:54.939Z,91.30
2022-12-26T11:34:32.682Z,91.47
2022-12-26T11:37:01.330Z,92.13
2022-12-26T11:39:37.133Z,90.60
2022-12-26T11:42:12.561Z,89.89
2022-12-26T11:44:45.518Z,91.53
2022-12-26T11:47:16.113Z,90.90
2022-12-26T11:49:53.013Z,90.65
2022-12-26T11:52:38.048Z,91.18
2022-12-26T11:55:27.327Z,91.23
2022-12-26T11:58:02.021Z,90.25
2022-12-26T12:00:31.162Z,91.14
2022-12-26T12:03:01.235Z,90.80
2022-12-26T12:05:53.603Z,90.31
2022-12-26T12:08:33.745Z,90.99
2022-12-26T12:11:16.380Z,90.96
2022-12-26T12:14:03.155Z,91.29
2022-12-26T12:16:46.499Z,90.83
2022-12-26T12:19:26.714Z,90.70
2022-12-26T12:22:07.812Z,89.28
2022-12-26T12:24:52.992Z,90.17
2022-12-26T12:27:31.135Z,89.81
2022-12-26T12:30:19.292Z,90.29
2022-12-26T12:33:11.219Z,90.35
2022-12-26T12:35:54.137Z,88.94
2022-12-26T12:38:33.632Z,89.24
2022-12-26T12:41:20.451Z,89.47
2022-12-26T12:43:58.394Z,89.29
2022-12-26T12:46:34.919Z,89.67
2022-12-26T12:49:33.962Z,87.19
2022-12-26T12:52:14.828Z,89.36
2022-12-26T12:55:11.764Z,89.06
2022-12-26T12:57:49.314Z,89.31
2022-12-26T13:00:21.925Z,89.63
2022-12-26T13:02:57.189Z,88.92
2022-12-26T13:05:34.671Z,87.88
2022-12-26T13:08:09.068Z,87.51
2022-12-26T13:10:47.051Z,87.65
2022-12-26T13:13:23.636Z,87.17
2022-12-26T13:15:57.126Z,87.39
2022-12-26T13:18:29.744Z,89.41
2022-12-26T13:21:02.465Z,89.72
2022-12-26T13:23:59.494Z,90.31
2022-12-26T13:26:32.053Z,90.13
2022-12-26T13:29:04.337Z,90.18
2022-12-26T13:31:39.309Z,90.12
2022-12-26T13:34:11.510Z,91.68
2022-12-26T13:36:43.224Z,89.80
2022-12-26T13:42:38.643Z,89.83
2022-12-26T13:45:58.671Z,90.39
2022-12-26T13:49:06.596Z,92.64
2022-12-26T13:51:47.937Z,92.77
2022-12-26T13:54:18.191Z,93.36
2022-12-26T13:57:17.902Z,93.39
2022-12-26T14:00:00.345Z,93.38
2022-12-26T14:03:19.601Z,92.64
2022-12-26T14:06:10.394Z,92.54
2022-12-26T14:08:52.933Z,92.22
2022-12-26T14:11:36.405Z,92.60
2022-12-26T14:14:19.903Z,92.30
2022-12-26T14:16:58.031Z,92.51
2022-12-26T14:19:40.084Z,92.09
2022-12-26T14:22:17.243Z,91.97
2022-12-26T14:25:06.244Z,91.65
2022-12-26T14:27:41.673Z,91.63
2022-12-26T14:30:30.521Z,92.71
2022-12-26T14:33:29.014Z,92.45
2022-12-26T14:36:13.989Z,92.75
2022-12-26T14:38:49.865Z,92.33
2022-12-26T14:41:33.775Z,92.25
2022-12-26T14:44:16.627Z,92.47
2022-12-26T14:47:02.536Z,92.37
2022-12-26T14:49:44.366Z,92.32
2022-12-26T14:52:49.942Z,92.02
2022-12-26T14:55:50.376Z,92.45
2022-12-26T14:58:31.384Z,92.44
2022-12-26T15:01:38.559Z,91.57
2022-12-26T15:04:19.977Z,91.81
2022-12-26T15:07:06.785Z,91.74
2022-12-26T15:10:01.228Z,91.31
2022-12-26T15:13:15.895Z,91.01
2022-12-26T15:16:12.535Z,91.14
2022-12-26T15:19:11.285Z,90.85
2022-12-26T15:22:17.247Z,91.24
2022-12-26T15:25:24.390Z,91.08
2022-12-26T15:28:43.927Z,91.39
2022-12-26T15:31:29.020Z,90.41
2022-12-26T15:34:07.020Z,90.54
2022-12-26T15:36:45.720Z,91.28
2022-12-26T15:39:26.066Z,90.78
2022-12-26T15:42:06.191Z,90.86
2022-12-26T15:44:45.823Z,91.40
2022-12-26T15:47:19.993Z,90.38
2022-12-26T15:50:04.646Z,90.65
2022-12-26T15:52:44.750Z,90.89
2022-12-26T15:55:37.767Z,90.53
2022-12-26T15:58:16.395Z,90.37
2022-12-26T16:00:52.743Z,90.83
2022-12-26T16:03:32.349Z,90.87
2022-12-26T16:06:23.600Z,91.00
2022-12-26T16:09:23.829Z,91.01
2022-12-26T16:11:56.792Z,91.44
2022-12-26T16:14:31.586Z,91.39
2022-12-26T16:17:20.478Z,90.94
2022-12-26T16:19:51.121Z,90.77
2022-12-26T16:22:44.437Z,91.26
2022-12-26T16:25:16.693Z,90.96
2022-12-26T16:27:47.168Z,91.22
2022-12-26T16:30:20.013Z,91.38
2022-12-26T16:32:51.394Z,90.52
2022-12-26T16:35:24.317Z,91.22
2022-12-26T16:37:54.517Z,91.17
2022-12-26T16:40:26.929Z,90.10
2022-12-26T16:43:01.428Z,90.80
2022-12-26T16:45:33.284Z,91.23
2022-12-26T16:48:06.540Z,90.89
2022-12-26T16:50:38.039Z,90.86
2022-12-26T16:53:17.516Z,90.64
2022-12-26T16:55:48.192Z,91.00
2022-12-26T16:58:22.193Z,90.71
2022-12-26T17:01:00.470Z,90.19
2022-12-26T17:03:36.982Z,89.73
2022-12-26T17:06:16.276Z,89.44
2022-12-26T17:08:48.954Z,90.01
2022-12-26T17:11:18.412Z,89.38
2022-12-26T17:13:53.936Z,90.11
2022-12-26T17:16:25.903Z,89.99
2022-12-26T17:18:56.919Z,90.95
2022-12-26T17:21:30.441Z,91.15
2022-12-26T17:24:25.214Z,90.07
2022-12-26T17:27:17.115Z,90.46
2022-12-26T17:29:57.008Z,90.55
2022-12-26T17:32:37.040Z,90.88
2022-12-26T17:35:12.469Z,90.24
2022-12-26T17:37:43.525Z,90.49
2022-12-26T17:40:24.397Z,89.46
2022-12-26T17:42:55.925Z,89.93
2022-12-26T17:45:26.820Z,89.66
2022-12-26T17:47:56.504Z,89.07
2022-12-26T17:50:32.140Z,89.21
2022-12-26T17:53:05.983Z,88.70
2022-12-26T17:55:36.025Z,89.51
2022-12-26T17:58:04.646Z,88.81
2022-12-26T18:00:34.019Z,89.21
2022-12-26T18:03:02.575Z,88.94
2022-12-26T18:05:33.062Z,88.45
2022-12-26T18:08:01.613Z,88.40
2022-12-26T18:10:33.079Z,87.99
2022-12-26T18:13:01.784Z,88.80
2022-12-26T18:15:32.093Z,88.87
2022-12-26T18:18:00.388Z,89.97
2022-12-26T18:20:30.671Z,89.73
2022-12-26T18:23:00.379Z,88.77
2022-12-26T18:25:29.419Z,88.02
2022-12-26T18:27:57.611Z,88.58
2022-12-26T18:30:27.143Z,88.28
2022-12-26T18:32:55.930Z,88.18
2022-12-26T18:35:25.107Z,88.35
2022-12-26T18:37:57.713Z,88.59
2022-12-26T18:40:32.685Z,89.09
2022-12-26T18:43:05.562Z,88.78
2022-12-26T18:45:35.393Z,89.93
2022-12-26T18:48:04.153Z,93.13
2022-12-26T18:50:34.591Z,93.79
2022-12-26T18:53:03.463Z,94.36
2022-12-26T18:55:33.897Z,92.43
2022-12-26T18:58:02.168Z,87.42
2022-12-26T19:00:31.394Z,89.19
2022-12-26T19:03:00.203Z,89.36
2022-12-26T19:05:31.686Z,89.46
2022-12-26T19:08:01.092Z,89.25
2022-12-26T19:10:31.734Z,89.88
2022-12-26T19:13:14.076Z,90.25
2022-12-26T19:15:47.206Z,89.07
2022-12-26T19:18:15.556Z,89.85
2022-12-26T19:20:46.469Z,89.04
2022-12-26T19:23:14.596Z,90.38
2022-12-26T19:25:43.225Z,89.25
2022-12-26T19:28:12.920Z,90.95
2022-12-26T19:30:41.479Z,90.30
2022-12-26T19:33:09.820Z,90.22
2022-12-26T19:35:38.703Z,90.51
2022-12-26T19:38:06.840Z,90.72
2022-12-26T19:40:35.211Z,89.42
2022-12-26T19:43:03.600Z,90.40
2022-12-26T19:45:33.727Z,89.39
2022-12-26T19:48:01.914Z,90.14
2022-12-26T19:50:30.682Z,89.66
2022-12-26T19:52:58.821Z,89.34
2022-12-26T19:55:27.557Z,90.65
2022-12-26T19:57:55.925Z,89.83
2022-12-26T20:00:24.556Z,90.55
2022-12-26T20:02:54.361Z,90.64
2022-12-26T20:05:22.912Z,90.89
2022-12-26T20:07:51.128Z,90.29
2022-12-26T20:10:19.950Z,91.02
2022-12-26T20:12:48.407Z,90.23
2022-12-26T20:15:17.045Z,89.68
2022-12-26T20:17:45.283Z,89.99
2022-12-26T20:20:15.226Z,90.99
2022-12-26T20:22:46.904Z,90.28
2022-12-26T20:25:18.407Z,90.47
2022-12-26T20:27:46.892Z,90.08
2022-12-26T20:30:15.609Z,89.76
2022-12-26T20:32:46.821Z,89.89
2022-12-26T20:35:17.037Z,90.54
2022-12-26T20:37:45.359Z,90.11
2022-12-26T20:40:14.386Z,91.26
2022-12-26T20:42:42.491Z,91.29
2022-12-26T20:45:11.412Z,90.63
2022-12-26T20:47:39.769Z,90.63
2022-12-26T20:50:09.179Z,90.68
2022-12-26T20:52:38.903Z,90.35
2022-12-26T20:55:08.406Z,90.03
2022-12-26T20:57:36.997Z,90.36
2022-12-26T21:00:06.309Z,89.98
2022-12-26T21:02:34.706Z,90.93
2022-12-26T21:05:03.226Z,90.49
2022-12-26T21:07:33.230Z,90.18
2022-12-26T21:10:03.294Z,90.11
2022-12-26T21:12:31.719Z,89.94
2022-12-26T21:14:59.918Z,90.24
2022-12-26T21:17:28.186Z,89.95
2022-12-26T21:19:56.446Z,90.23
2022-12-26T21:22:24.851Z,90.19
2022-12-26T21:24:53.640Z,89.18
2022-12-26T21:27:23.342Z,90.62
2022-12-26T21:29:52.260Z,90.48
2022-12-26T21:32:20.599Z,91.08
2022-12-26T21:34:49.129Z,90.23
2022-12-26T21:37:34.721Z,90.51
2022-12-26T21:40:03.082Z,89.92
2022-12-26T21:42:32.916Z,89.54
2022-12-26T21:45:01.214Z,88.93
2022-12-26T21:47:29.364Z,89.77
2022-12-26T21:49:57.874Z,89.04
2022-12-26T21:52:26.061Z,89.97
2022-12-26T21:55:11.499Z,89.08
2022-12-26T21:57:41.285Z,90.37
2022-12-26T22:00:14.461Z,89.37
2022-12-26T22:03:00.205Z,90.53
2022-12-26T22:05:32.949Z,90.69
2022-12-26T22:08:03.382Z,90.42
2022-12-26T22:10:51.570Z,90.58
2022-12-26T22:13:22.742Z,90.50
2022-12-26T22:16:07.419Z,90.67
2022-12-26T22:18:38.449Z,90.93
2022-12-26T22:21:10.483Z,90.52
2022-12-26T22:23:39.619Z,90.80
2022-12-26T22:26:09.333Z,90.81
2022-12-26T22:28:39.926Z,91.20
2022-12-26T22:31:09.285Z,92.18
2022-12-26T22:33:37.608Z,91.19
2022-12-26T22:36:08.548Z,92.12
2022-12-26T22:38:37.921Z,92.04
2022-12-26T22:41:08.040Z,91.43
2022-12-26T22:43:38.646Z,91.53
2022-12-26T22:46:07.796Z,91.16
2022-12-26T22:48:36.238Z,91.64
2022-12-26T22:51:05.079Z,91.50
2022-12-26T22:53:33.517Z,90.99
2022-12-26T22:56:04.177Z,90.93
2022-12-26T22:58:33.635Z,89.79
2022-12-26T23:01:03.348Z,89.28
2022-12-26T23:03:31.436Z,89.55
2022-12-26T23:06:00.480Z,89.18
2022-12-26T23:08:29.970Z,88.43
2022-12-26T23:11:00.315Z,88.54
2022-12-26T23:13:29.107Z,89.38
2022-12-26T23:16:03.593Z,89.09
2022-12-26T23:18:57.600Z,88.89
2022-12-26T23:21:43.670Z,88.52
2022-12-26T23:24:17.681Z,89.31
2022-12-26T23:26:48.319Z,88.96
2022-12-26T23:29:35.790Z,88.32
2022-12-26T23:32:04.740Z,88.73
2022-12-26T23:34:34.472Z,89.33
2022-12-26T23:37:03.304Z,88.77
2022-12-26T23:39:31.523Z,88.91
2022-12-26T23:41:59.807Z,88.91
2022-12-26T23:44:27.961Z,89.42
2022-12-26T23:46:56.623Z,89.00
2022-12-26T23:49:24.948Z,88.79
2022-12-26T23:51:54.649Z,89.16
2022-12-26T23:54:22.737Z,89.03
2022-12-26T23:56:51.405Z,89.04
2022-12-26T23:59:20.247Z,88.15
